Ringsted, Iowa
Current Conditions -  °F | °C
As of 5:52 AM on Saturday 20 Dec 2014 (Local Time) from KEST Reporting Station
Haze Haze  
Wind Chill: -8°   Ceiling: 500
Heat Index: -2°   Visibility: 6mi
Dew Point: -3°   Wind: 12mph
Humidity: 92%   Direction: 170°S
Pressure: 30.11"   Gusts: NA
Location:  43.29°N, 94.51°W
Report Text: KEST 201152Z AUTO 17010KT 6SM BR OVC005 M02/M03 A3011 RMK AO2 SLP212 I6000 T10221033 11011 21022 55004
Loading
Personal Weather Stations






























Interactive Weather Map New forecast layout! Learn more

10-Day Weather Forecast

Advertisements
Track Severe Weather on mobile